Time;durP1;ratioP1;P1;durP2;ratioP2;P2;SDS_P1;SDS_P2;PMS_P1;PMS_P2;Temp;Humidity;BMP_temperature;BMP_pressure;BME280_temperature;BME280_humidity;BME280_pressure;Samples;Min_cycle;Max_cycle;Signal;HPM_P1;HPM_P2
2023/12/15 00:02:09;;;;;;;25.90;20.73;;;4.90;99.90;;;;;;5017988;28;20455;-78
2023/12/15 00:04:37;;;;;;;26.30;21.07;;;4.90;99.90;;;;;;5017777;28;20514;-77
2023/12/15 00:07:05;;;;;;;24.70;19.97;;;4.90;99.90;;;;;;5017723;28;20443;-78
2023/12/15 00:09:36;;;;;;;25.50;19.90;;;4.80;99.90;;;;;;5017285;28;20452;-77
2023/12/15 00:12:05;;;;;;;27.10;19.60;;;4.90;99.90;;;;;;5018574;28;20467;-78
2023/12/15 00:14:33;;;;;;;24.00;18.10;;;4.80;99.90;;;;;;5016806;28;20511;-78
2023/12/15 00:17:01;;;;;;;20.53;15.67;;;4.90;99.90;;;;;;5016893;28;20474;-78
2023/12/15 00:19:30;;;;;;;28.23;20.03;;;4.80;99.90;;;;;;5016718;28;20599;-78
2023/12/15 00:21:58;;;;;;;26.90;19.57;;;4.80;99.90;;;;;;5018388;28;20464;-78
2023/12/15 00:24:26;;;;;;;28.80;20.50;;;4.90;99.90;;;;;;5016532;28;20491;-78
2023/12/15 00:26:58;;;;;;;24.73;20.13;;;4.80;99.90;;;;;;5016544;28;20452;-78
2023/12/15 00:29:26;;;;;;;24.33;18.37;;;4.80;99.90;;;;;;5016439;28;20542;-78
2023/12/15 00:31:55;;;;;;;25.33;19.00;;;4.80;99.90;;;;;;5016337;28;20476;-78
2023/12/15 00:34:23;;;;;;;25.40;19.40;;;4.80;99.90;;;;;;5016215;28;20837;-78
2023/12/15 00:36:51;;;;;;;27.17;20.60;;;4.80;99.90;;;;;;5016211;28;20455;-78
2023/12/15 00:39:20;;;;;;;25.83;20.27;;;4.80;99.90;;;;;;5016196;28;20448;-77
2023/12/15 00:41:48;;;;;;;26.23;18.60;;;4.90;99.90;;;;;;5016271;28;20468;-78
2023/12/15 00:44:17;;;;;;;27.43;21.07;;;4.90;99.90;;;;;;5016081;28;20925;-78
2023/12/15 00:46:46;;;;;;;29.23;20.93;;;4.90;99.90;;;;;;5016479;28;20818;-78
2023/12/15 00:49:14;;;;;;;27.80;20.43;;;4.90;99.90;;;;;;5016159;28;20451;-78
2023/12/15 00:51:42;;;;;;;28.70;20.83;;;4.90;99.90;;;;;;5017338;28;20443;-77
2023/12/15 00:54:11;;;;;;;27.23;20.20;;;4.90;99.90;;;;;;5016009;28;20506;-77
2023/12/15 00:56:39;;;;;;;25.63;20.57;;;4.90;99.90;;;;;;5015718;28;20555;-78
2023/12/15 00:59:07;;;;;;;25.43;19.93;;;4.90;99.90;;;;;;5015995;28;21015;-78
2023/12/15 01:01:37;;;;;;;29.73;22.33;;;4.90;99.90;;;;;;5016996;28;21035;-77
2023/12/15 01:04:05;;;;;;;28.00;20.77;;;4.90;99.90;;;;;;5015682;28;20531;-78
2023/12/15 01:06:33;;;;;;;27.10;20.13;;;4.90;99.90;;;;;;5017299;28;20443;-78
2023/12/15 01:09:02;;;;;;;27.53;19.70;;;4.80;99.90;;;;;;5015510;28;20467;-78
2023/12/15 01:11:30;;;;;;;25.37;20.33;;;4.90;99.90;;;;;;5016008;28;20506;-79
2023/12/15 01:13:58;;;;;;;31.80;22.07;;;4.90;99.90;;;;;;5016572;28;20469;-79
2023/12/15 01:16:27;;;;;;;27.77;21.20;;;4.90;99.90;;;;;;5016715;28;20823;-78
2023/12/15 01:18:56;;;;;;;27.80;21.00;;;4.90;99.90;;;;;;5017660;28;20443;-78
2023/12/15 01:21:25;;;;;;;29.60;21.80;;;4.90;99.90;;;;;;5015943;28;20479;-78
2023/12/15 01:23:53;;;;;;;30.07;21.30;;;4.90;99.90;;;;;;5017325;28;20864;-78
2023/12/15 01:26:21;;;;;;;28.77;21.10;;;4.90;99.90;;;;;;5015677;28;20513;-78
2023/12/15 01:28:49;;;;;;;32.40;23.67;;;4.90;99.90;;;;;;5015430;28;20455;-78
2023/12/15 01:31:18;;;;;;;27.97;22.17;;;4.90;99.90;;;;;;5015535;28;20452;-78
2023/12/15 01:33:46;;;;;;;31.03;23.63;;;4.90;99.90;;;;;;5016502;28;20969;-78
2023/12/15 01:36:17;;;;;;;32.33;24.40;;;4.90;99.90;;;;;;5015321;28;20453;-78
2023/12/15 01:38:45;;;;;;;28.37;21.70;;;4.90;99.90;;;;;;5016631;28;20423;-78
2023/12/15 01:41:14;;;;;;;33.93;23.50;;;4.90;99.90;;;;;;5014913;28;20567;-78
2023/12/15 01:43:42;;;;;;;32.50;23.13;;;4.90;99.90;;;;;;5015059;28;20851;-78
2023/12/15 01:46:10;;;;;;;31.77;21.40;;;4.90;99.90;;;;;;5014861;28;20447;-78
2023/12/15 01:48:42;;;;;;;30.47;23.33;;;4.90;99.90;;;;;;5016423;28;20475;-78
2023/12/15 01:51:11;;;;;;;30.53;22.70;;;5.00;99.90;;;;;;5014749;28;20857;-78
2023/12/15 01:53:42;;;;;;;29.03;22.13;;;5.00;99.90;;;;;;5014764;28;20471;-78
2023/12/15 01:56:11;;;;;;;33.87;24.47;;;5.00;99.90;;;;;;5014957;28;20451;-79
2023/12/15 01:58:40;;;;;;;34.27;25.73;;;5.00;99.90;;;;;;5015340;28;20447;-79
2023/12/15 02:01:08;;;;;;;32.63;23.43;;;5.00;99.90;;;;;;5014637;28;20463;-79
2023/12/15 02:03:37;;;;;;;33.07;23.03;;;5.00;99.90;;;;;;5015533;28;20460;-79
2023/12/15 02:06:06;;;;;;;32.27;23.83;;;5.00;99.90;;;;;;5014788;28;20447;-78
2023/12/15 02:08:34;;;;;;;32.17;24.17;;;5.00;99.90;;;;;;5016249;28;20492;-80
2023/12/15 02:11:04;;;;;;;36.33;25.20;;;4.90;99.90;;;;;;5018607;28;20459;-79
2023/12/15 02:13:33;;;;;;;31.33;22.43;;;5.00;99.90;;;;;;5017622;28;20559;-78
2023/12/15 02:16:01;;;;;;;33.87;24.00;;;5.00;99.90;;;;;;5018359;28;21007;-79
2023/12/15 02:18:29;;;;;;;30.70;22.87;;;5.00;99.90;;;;;;5016653;28;20458;-79
2023/12/15 02:20:58;;;;;;;32.90;23.50;;;4.90;99.90;;;;;;5017662;28;20472;-78
2023/12/15 02:23:27;;;;;;;34.90;24.27;;;5.00;99.90;;;;;;5017274;28;20534;-78
2023/12/15 02:25:56;;;;;;;38.37;26.17;;;5.00;99.90;;;;;;5015380;28;20459;-78
2023/12/15 02:28:24;;;;;;;34.53;25.90;;;5.00;99.90;;;;;;5017113;28;20436;-78
2023/12/15 02:30:52;;;;;;;34.60;25.23;;;5.00;99.90;;;;;;5015629;28;20487;-78
2023/12/15 02:33:20;;;;;;;33.27;23.37;;;5.00;99.90;;;;;;5014834;28;20440;-78
2023/12/15 02:35:50;;;;;;;36.23;25.60;;;5.00;99.90;;;;;;5016031;28;20850;-78
2023/12/15 02:38:19;;;;;;;35.37;24.07;;;5.00;99.90;;;;;;5016468;28;20597;-78
2023/12/15 02:40:48;;;;;;;35.40;24.43;;;5.00;99.90;;;;;;5014688;28;20455;-78
2023/12/15 02:43:17;;;;;;;40.10;26.13;;;5.00;99.90;;;;;;5014760;28;20510;-78
2023/12/15 02:45:45;;;;;;;37.60;24.43;;;5.00;99.90;;;;;;5016334;28;20504;-78
2023/12/15 02:48:13;;;;;;;37.73;25.80;;;5.00;99.90;;;;;;5014689;28;20455;-78
2023/12/15 02:50:42;;;;;;;38.80;26.03;;;5.00;99.90;;;;;;5014560;28;20543;-78
2023/12/15 02:53:10;;;;;;;39.73;27.33;;;5.00;99.90;;;;;;5016253;28;20443;-78
2023/12/15 02:55:38;;;;;;;34.03;26.60;;;5.00;99.90;;;;;;5014746;28;20456;-78
2023/12/15 02:58:08;;;;;;;43.27;28.63;;;5.00;99.90;;;;;;5014176;28;20453;-78
2023/12/15 03:00:36;;;;;;;37.40;26.00;;;5.00;99.90;;;;;;5014042;28;20944;-78
2023/12/15 03:03:06;;;;;;;38.90;26.73;;;5.00;99.90;;;;;;5014250;28;20567;-78
2023/12/15 03:05:35;;;;;;;41.30;28.57;;;5.10;99.90;;;;;;5015786;28;20451;-79
2023/12/15 03:08:03;;;;;;;40.60;28.33;;;5.10;99.90;;;;;;5016006;28;20536;-79
2023/12/15 03:10:32;;;;;;;40.90;28.40;;;5.00;99.90;;;;;;5016258;28;20451;-78
2023/12/15 03:13:00;;;;;;;39.10;26.07;;;5.00;99.90;;;;;;5013864;28;20448;-78
2023/12/15 03:15:30;;;;;;;43.00;27.67;;;5.10;99.90;;;;;;5015613;28;20502;-78
2023/12/15 03:17:58;;;;;;;38.47;27.50;;;5.00;99.90;;;;;;5019726;28;20440;-78
2023/12/15 03:20:26;;;;;;;42.23;27.73;;;5.10;99.90;;;;;;5018556;28;20539;-78
2023/12/15 03:22:59;;;;;;;40.93;28.30;;;5.10;99.90;;;;;;5019038;28;20887;-78
2023/12/15 03:25:27;;;;;;;40.40;27.97;;;5.10;99.90;;;;;;5018193;28;20875;-78
2023/12/15 03:27:55;;;;;;;40.87;29.87;;;5.10;99.90;;;;;;5018399;28;20588;-78
2023/12/15 03:30:24;;;;;;;44.70;31.53;;;5.10;99.90;;;;;;5017798;28;21027;-78
2023/12/15 03:32:54;;;;;;;43.80;29.50;;;5.10;99.90;;;;;;5017701;28;20880;-78
2023/12/15 03:35:22;;;;;;;40.80;28.17;;;5.10;99.90;;;;;;5017621;28;20470;-78
2023/12/15 03:37:50;;;;;;;42.20;29.03;;;5.10;99.90;;;;;;5019055;28;20455;-78
2023/12/15 03:40:18;;;;;;;42.10;29.13;;;5.10;99.90;;;;;;5017657;28;20452;-78
2023/12/15 03:42:47;;;;;;;40.60;29.07;;;5.10;99.90;;;;;;5017212;28;20472;-78
2023/12/15 03:45:15;;;;;;;43.30;28.80;;;5.10;99.90;;;;;;5017146;28;20468;-78
2023/12/15 03:47:43;;;;;;;45.20;29.47;;;5.10;99.90;;;;;;5016909;28;20452;-78
2023/12/15 03:50:13;;;;;;;45.47;32.00;;;5.20;99.90;;;;;;5017185;28;20505;-78
2023/12/15 03:52:41;;;;;;;43.53;28.57;;;5.20;99.90;;;;;;5018909;28;20948;-78
2023/12/15 03:55:10;;;;;;;43.93;30.40;;;5.20;99.90;;;;;;5016815;28;20468;-78
2023/12/15 03:57:38;;;;;;;44.90;31.93;;;5.20;99.90;;;;;;5017280;28;20457;-78
2023/12/15 04:00:08;;;;;;;44.03;29.53;;;5.20;99.90;;;;;;5016723;28;20484;-78
2023/12/15 04:02:37;;;;;;;41.13;30.23;;;5.20;99.90;;;;;;5017120;28;20472;-78
2023/12/15 04:05:06;;;;;;;44.33;31.40;;;5.20;99.90;;;;;;5016548;28;20471;-78
2023/12/15 04:07:36;;;;;;;45.17;33.30;;;5.20;99.90;;;;;;5016807;28;20453;-78
2023/12/15 04:10:06;;;;;;;46.87;31.87;;;5.30;99.90;;;;;;5016766;28;20807;-78
2023/12/15 04:12:34;;;;;;;49.77;34.37;;;5.30;99.90;;;;;;5018438;28;20907;-78
2023/12/15 04:15:03;;;;;;;47.30;30.83;;;5.20;99.90;;;;;;5017827;28;20824;-78
2023/12/15 04:17:31;;;;;;;53.13;36.00;;;5.30;99.90;;;;;;5018574;28;20538;-78
2023/12/15 04:19:59;;;;;;;49.20;33.57;;;5.30;99.90;;;;;;5016781;28;20837;-78
2023/12/15 04:22:28;;;;;;;49.40;33.50;;;5.30;99.90;;;;;;5017946;28;20907;-78
2023/12/15 04:24:57;;;;;;;53.23;35.00;;;5.30;99.90;;;;;;5016593;28;20464;-78
2023/12/15 04:27:28;;;;;;;54.50;35.20;;;5.30;99.90;;;;;;5015468;28;20467;-78
2023/12/15 04:29:56;;;;;;;55.47;38.10;;;5.30;99.90;;;;;;5016594;28;20448;-78
2023/12/15 04:32:24;;;;;;;53.93;35.97;;;5.40;99.90;;;;;;5016351;28;20451;-78
2023/12/15 04:34:53;;;;;;;56.33;35.33;;;5.40;99.90;;;;;;5016395;28;20456;-78
2023/12/15 04:37:21;;;;;;;54.73;35.60;;;5.40;99.90;;;;;;5016148;28;20504;-78
2023/12/15 04:39:49;;;;;;;55.70;35.83;;;5.40;99.90;;;;;;5016426;28;20462;-78
2023/12/15 04:42:19;;;;;;;56.50;36.00;;;5.40;99.90;;;;;;5017460;28;20528;-78
2023/12/15 04:44:47;;;;;;;55.27;39.40;;;5.40;99.90;;;;;;5015991;28;20528;-78
2023/12/15 04:47:15;;;;;;;56.23;38.33;;;5.40;99.90;;;;;;5016054;28;20542;-78
2023/12/15 04:49:43;;;;;;;62.00;40.30;;;5.40;99.90;;;;;;5015945;28;20440;-78
2023/12/15 04:52:11;;;;;;;72.23;42.60;;;5.50;99.90;;;;;;5015830;28;20515;-78
2023/12/15 04:54:40;;;;;;;64.73;39.50;;;5.50;99.90;;;;;;5016981;28;20455;-78
2023/12/15 04:57:08;;;;;;;66.50;39.97;;;5.50;99.90;;;;;;5015529;28;20452;-78
2023/12/15 04:59:40;;;;;;;67.50;42.07;;;5.50;99.90;;;;;;5015530;28;20448;-78
2023/12/15 05:02:09;;;;;;;67.80;43.03;;;5.60;99.90;;;;;;5015559;28;20458;-78
2023/12/15 05:04:37;;;;;;;64.27;42.63;;;5.60;99.90;;;;;;5017005;28;20484;-78
2023/12/15 05:07:09;;;;;;;70.23;44.37;;;5.60;99.90;;;;;;5015773;28;20455;-78
2023/12/15 05:09:37;;;;;;;68.30;42.57;;;5.60;99.90;;;;;;5016076;28;20461;-78
2023/12/15 05:12:08;;;;;;;72.43;45.10;;;5.60;99.90;;;;;;5016179;28;20485;-78
2023/12/15 05:14:39;;;;;;;73.20;48.00;;;5.60;99.90;;;;;;5015241;28;21010;-78
2023/12/15 05:17:07;;;;;;;71.50;45.00;;;5.70;99.90;;;;;;5015490;28;20992;-78
2023/12/15 05:19:34;;;;;;;70.90;44.00;;;5.70;99.90;;;;;;5016952;28;20467;-79
2023/12/15 05:22:03;;;;;;;76.90;47.37;;;5.70;99.90;;;;;;5017412;28;20451;-79
2023/12/15 05:24:34;;;;;;;75.93;46.00;;;5.70;99.90;;;;;;5018544;28;20511;-79
2023/12/15 05:27:03;;;;;;;78.83;47.93;;;5.80;99.90;;;;;;5017343;28;20436;-79
2023/12/15 05:29:32;;;;;;;86.33;48.80;;;5.80;99.90;;;;;;5018485;28;20455;-78
2023/12/15 05:32:02;;;;;;;75.87;46.83;;;5.80;99.90;;;;;;5017252;28;20455;-79
2023/12/15 05:34:30;;;;;;;78.80;44.83;;;5.80;99.90;;;;;;5017077;28;20908;-78
2023/12/15 05:36:58;;;;;;;79.07;46.17;;;5.80;99.90;;;;;;5016967;28;20971;-78
2023/12/15 05:39:26;;;;;;;71.97;44.43;;;5.80;99.90;;;;;;5017264;28;20446;-78
2023/12/15 05:41:55;;;;;;;76.63;44.90;;;5.90;99.90;;;;;;5018734;28;20990;-79
2023/12/15 05:44:23;;;;;;;69.50;43.90;;;5.90;99.90;;;;;;5016713;28;20486;-78
2023/12/15 05:46:51;;;;;;;73.93;41.60;;;5.90;99.90;;;;;;5016617;28;20519;-78
2023/12/15 05:49:21;;;;;;;69.63;41.93;;;5.90;99.90;;;;;;5016610;28;20452;-78
2023/12/15 05:51:50;;;;;;;71.43;41.17;;;5.90;99.90;;;;;;5016312;28;20477;-79
2023/12/15 05:54:18;;;;;;;76.73;45.50;;;5.90;99.90;;;;;;5016489;28;21003;-78
2023/12/15 05:56:46;;;;;;;77.80;42.97;;;6.00;99.90;;;;;;5016643;28;20475;-78
2023/12/15 05:59:14;;;;;;;68.03;39.23;;;6.00;99.90;;;;;;5016327;28;20456;-78
2023/12/15 06:01:42;;;;;;;69.27;41.73;;;6.00;99.90;;;;;;5017650;28;20444;-78
2023/12/15 06:04:11;;;;;;;71.83;41.83;;;6.00;99.90;;;;;;5015667;28;20475;-78
2023/12/15 06:06:40;;;;;;;71.20;41.20;;;6.00;99.90;;;;;;5015960;28;20946;-79
2023/12/15 06:09:09;;;;;;;68.73;40.87;;;6.00;99.90;;;;;;5015835;28;20454;-78
2023/12/15 06:11:40;;;;;;;62.17;38.83;;;6.00;99.90;;;;;;5015260;28;20547;-78
2023/12/15 06:14:08;;;;;;;74.83;40.30;;;6.00;99.90;;;;;;5015993;28;20560;-79
2023/12/15 06:16:37;;;;;;;67.37;40.50;;;6.10;99.90;;;;;;5017932;28;20862;-78
2023/12/15 06:19:05;;;;;;;65.27;39.63;;;6.10;99.90;;;;;;5017906;28;20432;-79
2023/12/15 06:21:34;;;;;;;65.10;38.20;;;6.10;99.90;;;;;;5016995;28;20441;-78
2023/12/15 06:24:04;;;;;;;69.67;41.10;;;6.10;99.90;;;;;;5015064;28;20480;-78
2023/12/15 06:26:32;;;;;;;71.83;40.83;;;6.10;99.90;;;;;;5015612;28;20449;-78
2023/12/15 06:29:00;;;;;;;76.33;40.87;;;6.10;99.90;;;;;;5015246;28;20484;-78
2023/12/15 06:31:29;;;;;;;59.03;37.83;;;6.10;99.90;;;;;;5017200;28;20442;-78
2023/12/15 06:33:58;;;;;;;65.80;39.97;;;6.10;99.90;;;;;;5015566;28;20492;-78
2023/12/15 06:36:27;;;;;;;66.53;39.50;;;6.20;99.90;;;;;;5015715;28;20448;-78
2023/12/15 06:38:58;;;;;;;68.73;40.07;;;6.20;99.90;;;;;;5015265;28;20452;-79
2023/12/15 06:41:27;;;;;;;65.83;37.83;;;6.10;99.90;;;;;;5015369;28;20463;-79
2023/12/15 06:43:56;;;;;;;69.23;41.93;;;6.20;99.90;;;;;;5014911;28;20481;-78
2023/12/15 06:46:24;;;;;;;74.13;42.07;;;6.20;99.90;;;;;;5016025;28;20456;-79
2023/12/15 06:48:54;;;;;;;72.93;39.93;;;6.20;99.90;;;;;;5016914;28;20478;-79
2023/12/15 06:51:22;;;;;;;71.17;41.00;;;6.20;99.90;;;;;;5016028;28;20541;-80
2023/12/15 06:53:50;;;;;;;62.93;39.90;;;6.20;99.90;;;;;;5016674;28;20475;-79
2023/12/15 06:56:18;;;;;;;67.70;38.13;;;6.20;99.90;;;;;;5017123;28;20454;-80
2023/12/15 06:58:48;;;;;;;64.00;38.67;;;6.20;99.90;;;;;;5017706;28;20502;-79
2023/12/15 07:01:16;;;;;;;66.50;39.90;;;6.20;99.90;;;;;;5016513;28;20483;-79
2023/12/15 07:03:45;;;;;;;61.53;37.57;;;6.20;99.90;;;;;;5016944;28;20476;-79
2023/12/15 07:06:13;;;;;;;65.63;42.50;;;6.20;99.90;;;;;;5016650;28;20454;-79
2023/12/15 07:08:42;;;;;;;71.50;43.73;;;6.20;99.90;;;;;;5016541;28;20457;-79
2023/12/15 07:11:10;;;;;;;62.40;40.13;;;6.20;99.90;;;;;;5015811;28;20458;-79
2023/12/15 07:13:38;;;;;;;66.13;41.27;;;6.20;99.90;;;;;;5016374;28;20468;-79
2023/12/15 07:16:10;;;;;;;69.90;40.17;;;6.20;99.90;;;;;;5016737;28;20449;-79
2023/12/15 07:18:38;;;;;;;67.93;42.63;;;6.30;99.90;;;;;;5017511;28;20434;-79
2023/12/15 07:21:07;;;;;;;65.97;41.70;;;6.30;99.90;;;;;;5016802;28;20503;-79
2023/12/15 07:23:35;;;;;;;61.03;41.57;;;6.30;99.90;;;;;;5015298;28;20478;-79
2023/12/15 07:26:04;;;;;;;66.23;42.93;;;6.30;99.90;;;;;;5017618;28;20473;-79
2023/12/15 07:28:32;;;;;;;64.93;38.77;;;6.30;99.90;;;;;;5016735;28;20443;-80
2023/12/15 07:31:01;;;;;;;63.83;40.43;;;6.30;99.90;;;;;;5015846;28;20458;-80
2023/12/15 07:33:31;;;;;;;58.57;37.47;;;6.30;99.90;;;;;;5015242;28;20444;-79
2023/12/15 07:35:59;;;;;;;64.17;39.63;;;6.30;99.90;;;;;;5017021;28;20439;-79
2023/12/15 07:38:27;;;;;;;68.67;40.47;;;6.30;99.90;;;;;;5016599;28;20526;-79
2023/12/15 07:40:56;;;;;;;58.17;37.17;;;6.40;99.90;;;;;;5016564;28;20432;-78
2023/12/15 07:43:24;;;;;;;55.50;36.87;;;6.40;99.90;;;;;;5016628;28;20530;-79
2023/12/15 07:45:52;;;;;;;62.77;39.63;;;6.40;99.90;;;;;;5015416;28;20844;-79
2023/12/15 07:48:20;;;;;;;56.17;38.97;;;6.40;99.90;;;;;;5015567;28;20976;-79
2023/12/15 07:50:50;;;;;;;54.70;36.87;;;6.40;99.90;;;;;;5015642;28;20487;-79
2023/12/15 07:53:18;;;;;;;63.37;40.53;;;6.50;99.90;;;;;;5015923;28;20453;-79
2023/12/15 07:55:47;;;;;;;65.00;42.20;;;6.50;99.90;;;;;;5015387;28;20457;-79
2023/12/15 07:58:15;;;;;;;62.30;37.57;;;6.50;99.90;;;;;;5015804;28;20465;-78
2023/12/15 08:00:43;;;;;;;66.03;39.90;;;6.50;99.90;;;;;;5016081;28;20449;-79
2023/12/15 08:03:11;;;;;;;61.03;38.83;;;6.50;99.90;;;;;;5018832;28;20451;-79
2023/12/15 08:05:40;;;;;;;56.40;37.30;;;6.60;99.90;;;;;;5019074;28;20472;-79
2023/12/15 08:08:09;;;;;;;53.50;36.40;;;6.60;99.90;;;;;;5019294;28;20503;-80
2023/12/15 08:10:37;;;;;;;58.13;37.70;;;6.60;99.90;;;;;;5018607;28;20456;-80
2023/12/15 08:13:09;;;;;;;63.17;39.00;;;6.60;99.90;;;;;;5018827;28;20499;-79
2023/12/15 08:15:38;;;;;;;59.30;36.57;;;6.60;99.90;;;;;;5019136;28;20868;-79
2023/12/15 08:18:06;;;;;;;53.33;35.87;;;6.60;99.90;;;;;;5019001;28;20453;-80
2023/12/15 08:20:34;;;;;;;58.77;36.10;;;6.70;99.90;;;;;;5019130;28;20463;-79
2023/12/15 08:23:03;;;;;;;57.47;35.10;;;6.70;99.90;;;;;;5020876;28;20993;-79
2023/12/15 08:25:32;;;;;;;50.53;35.67;;;6.70;99.90;;;;;;5019382;28;20548;-79
2023/12/15 08:28:02;;;;;;;52.07;33.17;;;6.70;99.90;;;;;;5018401;28;20460;-79
2023/12/15 08:30:31;;;;;;;63.93;36.57;;;6.80;99.90;;;;;;5018759;28;20537;-80
2023/12/15 08:33:01;;;;;;;53.60;34.97;;;6.80;99.90;;;;;;5020826;28;20448;-79
2023/12/15 08:35:30;;;;;;;50.00;33.13;;;6.80;99.90;;;;;;5021685;28;20560;-80
2023/12/15 08:37:58;;;;;;;57.30;36.77;;;6.80;99.90;;;;;;5021112;28;20463;-80
2023/12/15 08:40:27;;;;;;;49.70;32.57;;;6.80;99.90;;;;;;5022676;28;20474;-80
2023/12/15 08:42:56;;;;;;;51.50;35.00;;;6.90;99.90;;;;;;5021186;28;20522;-79
2023/12/15 08:45:25;;;;;;;55.17;33.23;;;6.90;99.90;;;;;;5022110;28;20470;-79
2023/12/15 08:47:53;;;;;;;49.80;31.70;;;6.90;99.90;;;;;;5021916;28;20446;-79
2023/12/15 08:50:22;;;;;;;53.80;33.27;;;7.00;99.90;;;;;;5020740;28;20458;-79
2023/12/15 08:52:50;;;;;;;50.97;31.40;;;7.00;99.90;;;;;;5019476;28;20445;-79
2023/12/15 08:55:19;;;;;;;43.77;31.57;;;7.00;99.90;;;;;;5020906;28;20475;-79
2023/12/15 08:57:47;;;;;;;48.33;30.97;;;7.00;99.90;;;;;;5020482;28;20452;-79
2023/12/15 09:00:17;;;;;;;55.30;31.30;;;7.10;99.90;;;;;;5021632;28;20542;-79
2023/12/15 09:02:46;;;;;;;48.03;29.60;;;7.10;99.90;;;;;;5019880;28;20450;-79
2023/12/15 09:05:14;;;;;;;46.43;31.80;;;7.30;99.90;;;;;;5019835;28;20556;-80
2023/12/15 09:08:03;;;;;;;49.63;32.00;;;7.10;99.90;;;;;;5019884;28;20867;-80
2023/12/15 09:10:33;;;;;;;44.67;30.47;;;7.20;99.90;;;;;;5022034;28;20450;-79
2023/12/15 09:13:02;;;;;;;48.07;30.63;;;7.20;99.90;;;;;;5021071;28;20441;-80
2023/12/15 09:15:32;;;;;;;46.13;31.17;;;7.20;99.90;;;;;;5020233;28;20461;-80
2023/12/15 09:18:00;;;;;;;40.13;28.17;;;7.30;99.90;;;;;;5020026;28;20457;-79
2023/12/15 09:20:28;;;;;;;41.90;27.57;;;7.30;99.90;;;;;;5019093;28;20451;-80
2023/12/15 09:22:56;;;;;;;48.00;29.90;;;7.30;99.90;;;;;;5019093;28;20454;-80
2023/12/15 09:25:25;;;;;;;49.00;29.60;;;7.30;99.90;;;;;;5019264;28;20471;-80
2023/12/15 09:27:53;;;;;;;44.63;29.07;;;7.40;99.90;;;;;;5019276;28;20459;-80
2023/12/15 09:30:21;;;;;;;44.30;26.80;;;7.40;99.90;;;;;;5018632;28;20487;-80
2023/12/15 09:32:51;;;;;;;43.00;25.27;;;7.40;99.90;;;;;;5018561;28;20454;-80
2023/12/15 09:35:19;;;;;;;43.60;27.60;;;7.40;99.90;;;;;;5019074;28;20670;-80
2023/12/15 09:37:47;;;;;;;39.90;26.13;;;7.50;99.90;;;;;;5018908;28;20493;-79
2023/12/15 09:40:21;;;;;;;43.87;27.70;;;7.50;99.90;;;;;;5019741;28;20497;-81
2023/12/15 09:42:49;;;;;;;35.63;26.60;;;7.50;99.90;;;;;;5019106;28;20456;-80
2023/12/15 09:45:17;;;;;;;44.93;24.97;;;7.60;99.90;;;;;;5020406;28;20570;-79
2023/12/15 09:47:47;;;;;;;41.20;26.10;;;7.60;99.90;;;;;;5018607;28;20453;-80
2023/12/15 09:50:19;;;;;;;35.03;22.80;;;7.70;99.90;;;;;;5020733;28;20433;-80
2023/12/15 09:52:51;;;;;;;37.23;24.43;;;7.60;99.90;;;;;;5018831;28;20449;-80
2023/12/15 09:55:19;;;;;;;44.23;24.83;;;7.70;99.90;;;;;;5018857;28;20555;-80
2023/12/15 09:57:49;;;;;;;44.20;23.90;;;7.70;99.90;;;;;;5020212;28;20434;-79
2023/12/15 10:00:18;;;;;;;37.07;23.30;;;7.70;99.90;;;;;;5018023;28;20464;-80
2023/12/15 10:02:46;;;;;;;36.43;21.77;;;7.80;99.90;;;;;;5018304;28;20486;-80
2023/12/15 10:05:17;;;;;;;42.97;23.37;;;7.80;99.90;;;;;;5017485;28;20882;-80
2023/12/15 10:07:45;;;;;;;33.37;22.27;;;7.80;99.90;;;;;;5017777;28;20473;-80
2023/12/15 10:10:13;;;;;;;38.07;22.63;;;7.90;99.90;;;;;;5018755;28;20538;-79
2023/12/15 10:12:42;;;;;;;34.50;20.77;;;7.90;99.90;;;;;;5019225;28;20450;-80
2023/12/15 10:15:10;;;;;;;36.23;22.67;;;7.90;99.90;;;;;;5019547;28;20490;-80
2023/12/15 10:17:39;;;;;;;33.33;20.43;;;7.90;99.90;;;;;;5021364;28;20807;-80
2023/12/15 10:20:09;;;;;;;37.93;22.40;;;7.90;99.90;;;;;;5019952;28;20456;-79
2023/12/15 10:22:39;;;;;;;30.37;20.97;;;8.00;99.90;;;;;;5018623;28;20443;-80
2023/12/15 10:25:20;;;;;;;31.00;18.47;;;8.00;99.90;;;;;;5018289;28;20490;-80
2023/12/15 10:27:49;;;;;;;40.23;20.80;;;8.00;99.90;;;;;;5018840;28;20471;-80
2023/12/15 10:30:18;;;;;;;35.67;20.17;;;8.00;99.90;;;;;;5018737;28;20454;-80
2023/12/15 10:32:47;;;;;;;31.30;20.47;;;8.10;99.90;;;;;;5018957;28;20828;-80
2023/12/15 10:35:18;;;;;;;31.10;18.83;;;8.10;99.90;;;;;;5018150;28;20477;-80
2023/12/15 10:37:48;;;;;;;30.53;19.20;;;8.10;99.90;;;;;;5017998;28;20860;-80
2023/12/15 10:40:16;;;;;;;26.07;16.17;;;8.10;99.90;;;;;;5018420;28;20455;-80
2023/12/15 10:42:45;;;;;;;30.33;16.73;;;8.10;99.90;;;;;;5018436;28;20551;-80
2023/12/15 10:45:15;;;;;;;25.43;15.57;;;8.20;99.90;;;;;;5017644;28;20500;-80
2023/12/15 10:47:44;;;;;;;27.77;16.77;;;8.20;99.90;;;;;;5017997;28;20976;-79
2023/12/15 10:50:13;;;;;;;24.00;14.83;;;8.20;99.90;;;;;;5017534;28;20455;-79
2023/12/15 10:52:41;;;;;;;31.83;15.30;;;8.30;99.90;;;;;;5016995;28;20459;-80
2023/12/15 10:55:13;;;;;;;27.40;16.87;;;8.30;99.90;;;;;;5019725;28;20964;-79
2023/12/15 10:57:42;;;;;;;25.60;16.50;;;8.30;99.90;;;;;;5018112;28;20452;-80
2023/12/15 11:00:11;;;;;;;30.27;17.50;;;8.30;99.90;;;;;;5017074;28;20483;-80
2023/12/15 11:02:41;;;;;;;31.67;16.53;;;8.30;99.90;;;;;;5017575;28;20459;-80
2023/12/15 11:05:10;;;;;;;27.97;15.87;;;8.40;99.90;;;;;;5017254;28;20821;-80
2023/12/15 11:07:39;;;;;;;28.63;15.83;;;8.40;99.90;;;;;;5017049;28;20519;-80
2023/12/15 11:10:12;;;;;;;24.57;15.73;;;8.40;99.90;;;;;;5018666;28;20436;-80
2023/12/15 11:12:42;;;;;;;27.43;16.10;;;8.40;99.90;;;;;;5016625;28;20463;-80
2023/12/15 11:15:13;;;;;;;26.60;15.60;;;8.40;99.90;;;;;;5017471;28;20564;-80
2023/12/15 11:17:44;;;;;;;26.37;17.00;;;8.40;99.90;;;;;;5018810;28;20428;-80
2023/12/15 11:20:34;;;;;;;31.93;16.10;;;8.40;99.90;;;;;;5016924;28;20506;-79
2023/12/15 11:23:07;;;;;;;20.80;14.17;;;8.40;99.90;;;;;;5016562;28;20969;-80
2023/12/15 11:25:37;;;;;;;27.53;14.63;;;8.40;99.90;;;;;;5016544;28;20984;-80
2023/12/15 11:28:09;;;;;;;25.20;14.00;;;8.40;99.90;;;;;;5016612;28;20473;-80
2023/12/15 11:30:40;;;;;;;22.90;13.30;;;8.40;99.90;;;;;;5018590;28;20419;-80
2023/12/15 11:33:43;;;;;;;25.53;13.13;;;8.50;99.90;;;;;;5016499;28;20502;-80
2023/12/15 11:36:13;;;;;;;28.37;14.07;;;8.40;99.90;;;;;;5019336;28;20439;-79
2023/12/15 11:38:47;;;;;;;29.20;13.20;;;8.40;99.90;;;;;;5020836;28;20446;-79
2023/12/15 11:41:19;;;;;;;26.07;13.10;;;8.40;99.90;;;;;;5019998;28;20451;-79
2023/12/15 11:43:50;;;;;;;24.13;13.90;;;8.50;99.90;;;;;;5019795;28;20533;-79
2023/12/15 11:46:21;;;;;;;34.47;15.10;;;8.50;99.90;;;;;;5030053;28;20419;-80
2023/12/15 11:48:49;;;;;;;28.93;15.13;;;8.50;99.90;;;;;;5024849;28;20444;-80
2023/12/15 11:51:20;;;;;;;28.90;17.37;;;8.50;99.90;;;;;;5025287;28;21012;-80
2023/12/15 11:53:50;;;;;;;26.90;15.00;;;8.50;99.90;;;;;;5023843;28;20474;-81
2023/12/15 11:56:18;;;;;;;24.97;14.70;;;8.50;99.90;;;;;;5024862;28;20455;-81
2023/12/15 11:58:48;;;;;;;28.97;15.57;;;8.60;99.90;;;;;;5022993;28;20462;-81
2023/12/15 12:01:18;;;;;;;24.87;15.67;;;8.60;99.90;;;;;;5023763;28;20443;-80
2023/12/15 12:03:46;;;;;;;27.60;18.10;;;8.60;99.90;;;;;;5022855;28;20882;-80
2023/12/15 12:06:20;;;;;;;31.70;18.17;;;8.60;99.90;;;;;;5022923;28;20916;-80
2023/12/15 12:08:49;;;;;;;28.83;16.57;;;8.60;99.90;;;;;;5024062;28;20427;-80
2023/12/15 12:11:17;;;;;;;32.17;17.80;;;8.60;99.90;;;;;;5023076;28;20464;-80
2023/12/15 12:13:50;;;;;;;30.23;16.57;;;8.60;99.90;;;;;;5022812;28;20502;-80
2023/12/15 12:16:19;;;;;;;25.57;15.30;;;8.60;99.90;;;;;;5022306;28;20556;-80
2023/12/15 12:18:48;;;;;;;28.60;17.00;;;8.60;99.90;;;;;;5022206;28;20454;-80
2023/12/15 12:21:19;;;;;;;27.03;16.00;;;8.70;99.90;;;;;;5022055;28;20469;-79
2023/12/15 12:23:49;;;;;;;29.27;15.80;;;8.70;99.90;;;;;;5021185;28;20490;-81
2023/12/15 12:26:18;;;;;;;24.73;13.63;;;8.70;99.90;;;;;;5021032;28;20447;-81
2023/12/15 12:28:50;;;;;;;23.97;15.50;;;8.70;99.90;;;;;;5021177;28;20479;-80
2023/12/15 12:31:20;;;;;;;29.70;15.07;;;8.70;99.90;;;;;;5021354;28;20450;-80
2023/12/15 12:33:48;;;;;;;24.73;13.77;;;8.70;99.90;;;;;;5021668;28;20479;-80
2023/12/15 12:36:17;;;;;;;28.80;14.70;;;8.80;99.90;;;;;;5020688;28;20450;-81
2023/12/15 12:38:46;;;;;;;25.20;13.90;;;8.70;99.90;;;;;;5020611;28;20851;-81
2023/12/15 12:41:16;;;;;;;35.57;15.20;;;8.90;99.90;;;;;;5021602;28;20498;-80
2023/12/15 12:43:44;;;;;;;25.97;14.23;;;8.70;99.90;;;;;;5022898;28;20482;-80
2023/12/15 12:46:14;;;;;;;24.20;14.40;;;8.80;99.90;;;;;;5021287;28;20813;-80